Time;durP1;ratioP1;P1;durP2;ratioP2;P2;SDS_P1;SDS_P2;PMS_P1;PMS_P2;Temp;Humidity;BMP_temperature;BMP_pressure;BME280_temperature;BME280_humidity;BME280_pressure;Samples;Min_cycle;Max_cycle;Signal;HPM_P1;HPM_P2
2023/04/02 00:02:17;;;;;;;;;;;7.20;81.10;;;;;;9185414;19;20305;-67
2023/04/02 00:05:33;;;;;;;;;;;7.20;81.10;;;;;;9185247;19;19942;-68
2023/04/02 00:08:39;;;;;;;;;;;7.20;81.10;;;;;;9183614;19;19919;-69
2023/04/02 00:11:47;;;;;;;;;;;7.20;81.10;;;;;;9184341;19;19925;-68
2023/04/02 00:14:52;;;;;;;;;;;7.10;81.00;;;;;;9182635;19;19918;-68
2023/04/02 00:17:59;;;;;;;;;;;7.10;81.00;;;;;;9184412;19;20127;-68
2023/04/02 00:21:11;;;;;;;;;;;7.10;81.00;;;;;;9184933;19;19930;-68
2023/04/02 00:24:18;;;;;;;;;;;7.10;81.10;;;;;;9183801;19;19926;-68
2023/04/02 00:27:22;;;;;;;;;;;7.00;81.00;;;;;;9183267;19;19918;-69
2023/04/02 00:30:29;;;;;;;;;;;7.00;81.00;;;;;;9183039;19;19980;-68
2023/04/02 00:33:33;;;;;;;;;;;7.00;81.00;;;;;;9180272;19;20356;-69
2023/04/02 00:36:42;;;;;;;;;;;7.00;81.10;;;;;;9182599;19;19921;-68
2023/04/02 00:39:46;;;;;;;;;;;6.90;81.00;;;;;;9183671;19;19923;-69
2023/04/02 00:42:54;;;;;;;;;;;6.90;81.10;;;;;;9178615;19;19922;-68
2023/04/02 00:46:00;;;;;;;;;;;6.90;81.10;;;;;;9182913;19;19940;-68
2023/04/02 00:49:09;;;;;;;;;;;6.90;81.00;;;;;;9183670;19;20260;-69
2023/04/02 00:52:16;;;;;;;;;;;6.90;81.00;;;;;;9183586;19;20336;-68
2023/04/02 00:55:24;;;;;;;;;;;6.90;81.00;;;;;;9180421;19;19922;-68
2023/04/02 00:58:28;;;;;;;;;;;6.80;80.90;;;;;;9184591;19;19922;-68
2023/04/02 01:01:41;;;;;;;;;;;6.80;80.90;;;;;;9183076;19;19919;-68
2023/04/02 01:04:52;;;;;;;;;;;6.80;81.00;;;;;;9186382;19;19911;-68
2023/04/02 01:08:05;;;;;;;;;;;6.80;81.00;;;;;;9180319;19;20333;-67
2023/04/02 01:11:14;;;;;;;;;;;6.80;81.00;;;;;;9182504;19;20365;-68
2023/04/02 01:14:25;;;;;;;;;;;6.80;81.00;;;;;;9181604;19;19922;-68
2023/04/02 01:17:33;;;;;;;;;;;6.70;81.00;;;;;;9182911;19;19915;-68
2023/04/02 01:20:46;;;;;;;;;;;6.70;80.90;;;;;;9182805;19;19915;-68
2023/04/02 01:23:59;;;;;;;;;;;6.70;80.90;;;;;;9182420;19;20266;-68
2023/04/02 01:27:07;;;;;;;;;;;6.70;80.90;;;;;;9180397;19;19918;-68
2023/04/02 01:30:23;;;;;;;;;;;6.70;81.00;;;;;;9181960;19;19915;-69
2023/04/02 01:33:30;;;;;;;;;;;6.70;81.00;;;;;;9181405;19;19923;-68
2023/04/02 01:36:39;;;;;;;;;;;6.60;80.90;;;;;;9180606;19;19938;-69
2023/04/02 01:39:50;;;;;;;;;;;6.60;80.90;;;;;;9181343;19;19927;-69
2023/04/02 01:42:59;;;;;;;;;;;6.60;80.90;;;;;;9174801;19;19918;-69
2023/04/02 01:46:25;;;;;;;;;;;6.60;80.90;;;;;;9181865;19;19987;-68
2023/04/02 01:49:31;;;;;;;;;;;6.60;81.00;;;;;;9179964;19;19929;-68
2023/04/02 01:52:36;;;;;;;;;;;6.50;80.90;;;;;;9177622;19;19923;-68
2023/04/02 01:55:44;;;;;;;;;;;6.50;81.00;;;;;;9176830;19;19926;-68
2023/04/02 01:58:48;;;;;;;;;;;6.50;80.90;;;;;;9180460;19;19922;-68
2023/04/02 02:02:01;;;;;;;;;;;6.50;80.90;;;;;;9179097;19;19991;-68
2023/04/02 02:05:07;;;;;;;;;;;6.50;80.90;;;;;;9179765;19;19927;-67
2023/04/02 02:08:21;;;;;;;;;;;6.40;80.80;;;;;;9179538;19;19922;-68
2023/04/02 02:11:27;;;;;;;;;;;6.40;80.80;;;;;;9178260;19;19919;-68
2023/04/02 02:14:34;;;;;;;;;;;6.40;80.80;;;;;;9179661;19;19915;-68
2023/04/02 02:17:41;;;;;;;;;;;6.30;80.70;;;;;;9179013;19;20001;-68
2023/04/02 02:20:47;;;;;;;;;;;6.30;80.80;;;;;;9180369;19;19933;-67
2023/04/02 02:23:51;;;;;;;;;;;6.20;80.80;;;;;;9181171;19;19956;-68
2023/04/02 02:27:02;;;;;;;;;;;6.20;80.70;;;;;;9180129;19;19926;-68
2023/04/02 02:30:10;;;;;;;;;;;6.20;80.70;;;;;;9180206;19;19929;-68
2023/04/02 02:33:21;;;;;;;;;;;6.10;80.70;;;;;;9180108;19;20539;-68
2023/04/02 02:36:32;;;;;;;;;;;6.10;80.70;;;;;;9178750;19;19926;-69
2023/04/02 02:39:41;;;;;;;;;;;6.00;80.60;;;;;;9178045;19;19926;-68
2023/04/02 02:42:48;;;;;;;;;;;6.00;80.60;;;;;;9175561;19;19978;-68
2023/04/02 02:45:55;;;;;;;;;;;6.00;80.60;;;;;;9179626;19;19919;-68
2023/04/02 02:49:03;;;;;;;;;;;5.90;80.60;;;;;;9175722;19;20372;-68
2023/04/02 02:52:15;;;;;;;;;;;5.90;80.60;;;;;;9177717;19;19922;-68
2023/04/02 02:55:33;;;;;;;;;;;5.80;80.50;;;;;;9175049;19;20257;-68
2023/04/02 02:58:52;;;;;;;;;;;5.70;80.50;;;;;;9177548;19;19929;-67
2023/04/02 03:02:03;;;;;;;;;;;5.70;80.50;;;;;;9177712;19;19923;-68
2023/04/02 03:05:16;;;;;;;;;;;5.60;80.50;;;;;;9177670;19;19946;-68
2023/04/02 03:08:25;;;;;;;;;;;5.60;80.50;;;;;;9176004;19;19918;-67
2023/04/02 03:11:34;;;;;;;;;;;5.60;80.60;;;;;;9176522;19;19927;-68
2023/04/02 03:14:43;;;;;;;;;;;5.60;80.50;;;;;;9175671;19;19923;-68
2023/04/02 03:17:51;;;;;;;;;;;5.60;80.50;;;;;;9177168;19;19915;-68
2023/04/02 03:20:59;;;;;;;;;;;5.50;80.40;;;;;;9178265;19;19978;-69
2023/04/02 03:24:10;;;;;;;;;;;5.50;80.40;;;;;;9182596;19;19923;-69
2023/04/02 03:27:16;;;;;;;;;;;5.40;80.30;;;;;;9184257;19;19931;-68
2023/04/02 03:30:27;;;;;;;;;;;5.40;80.40;;;;;;9184701;19;19918;-69
2023/04/02 03:33:35;;;;;;;;;;;5.30;80.30;;;;;;9184385;19;19932;-69
2023/04/02 03:36:50;;;;;;;;;;;5.30;80.30;;;;;;9184401;19;19922;-68
2023/04/02 03:39:56;;;;;;;;;;;5.20;80.30;;;;;;9184465;19;19918;-68
2023/04/02 03:43:05;;;;;;;;;;;5.20;80.30;;;;;;9178497;19;19919;-68
2023/04/02 03:46:14;;;;;;;;;;;5.10;80.20;;;;;;9183928;19;19922;-68
2023/04/02 03:49:25;;;;;;;;;;;5.10;80.30;;;;;;9183756;19;19922;-68
2023/04/02 03:52:32;;;;;;;;;;;5.10;80.30;;;;;;9183311;19;20398;-68
2023/04/02 03:55:41;;;;;;;;;;;5.00;80.20;;;;;;9183816;19;19927;-68
2023/04/02 03:58:47;;;;;;;;;;;5.00;80.30;;;;;;9183143;19;19923;-68
2023/04/02 04:01:57;;;;;;;;;;;5.00;80.30;;;;;;9182794;19;19919;-69
2023/04/02 04:05:02;;;;;;;;;;;5.00;80.30;;;;;;9184771;19;19975;-67
2023/04/02 04:08:15;;;;;;;;;;;5.00;80.20;;;;;;9182823;19;20250;-67
2023/04/02 04:11:23;;;;;;;;;;;4.90;80.20;;;;;;9184415;19;19919;-68
2023/04/02 04:14:30;;;;;;;;;;;4.90;80.20;;;;;;9182006;19;19911;-68
2023/04/02 04:17:37;;;;;;;;;;;4.80;80.10;;;;;;9183213;19;19926;-68
2023/04/02 04:20:50;;;;;;;;;;;4.80;80.10;;;;;;9183009;19;19933;-69
2023/04/02 04:23:58;;;;;;;;;;;4.80;80.10;;;;;;9182684;19;19918;-68
2023/04/02 04:27:08;;;;;;;;;;;4.70;80.10;;;;;;9184814;19;19907;-68
2023/04/02 04:30:17;;;;;;;;;;;4.70;80.10;;;;;;9184551;19;19927;-68
2023/04/02 04:33:27;;;;;;;;;;;4.70;80.10;;;;;;9184967;19;19911;-68
2023/04/02 04:36:52;;;;;;;;;;;4.70;80.10;;;;;;9182298;19;19956;-68
2023/04/02 04:40:04;;;;;;;;;;;4.60;80.00;;;;;;9181487;19;19927;-68
2023/04/02 04:43:15;;;;;;;;;;;4.50;80.00;;;;;;9177210;19;19919;-68
2023/04/02 04:46:23;;;;;;;;;;;4.50;80.00;;;;;;9181947;19;19918;-68
2023/04/02 04:49:31;;;;;;;;;;;4.50;80.00;;;;;;9181687;19;19918;-67
2023/04/02 04:52:38;;;;;;;;;;;4.40;80.00;;;;;;9181261;19;19930;-68
2023/04/02 04:55:46;;;;;;;;;;;4.40;80.00;;;;;;9171612;19;19926;-68
2023/04/02 04:58:54;;;;;;;;;;;4.40;80.00;;;;;;9174396;19;19926;-69
2023/04/02 05:02:01;;;;;;;;;;;4.30;80.00;;;;;;9169477;19;19926;-70
2023/04/02 05:05:16;;;;;;;;;;;4.30;80.00;;;;;;9174294;19;20344;-68
2023/04/02 05:08:23;;;;;;;;;;;4.30;80.00;;;;;;9172547;19;20408;-69
2023/04/02 05:11:32;;;;;;;;;;;4.20;80.00;;;;;;9175597;19;19982;-68
2023/04/02 05:14:42;;;;;;;;;;;4.20;80.60;;;;;;9173042;19;19923;-69
2023/04/02 05:17:52;;;;;;;;;;;4.20;79.90;;;;;;9175523;19;19918;-68
2023/04/02 05:20:58;;;;;;;;;;;4.20;80.00;;;;;;9173276;19;19915;-68
2023/04/02 05:24:08;;;;;;;;;;;4.20;80.00;;;;;;9173840;19;19915;-68
2023/04/02 05:27:27;;;;;;;;;;;4.10;80.00;;;;;;9172865;19;20572;-68
2023/04/02 05:30:40;;;;;;;;;;;4.10;80.00;;;;;;9173599;19;19919;-68
2023/04/02 05:33:46;;;;;;;;;;;4.10;80.00;;;;;;9173179;19;20342;-68
2023/04/02 05:36:52;;;;;;;;;;;4.20;80.00;;;;;;9169054;19;19930;-68
2023/04/02 05:39:57;;;;;;;;;;;4.10;80.00;;;;;;9175181;19;20591;-68
2023/04/02 05:43:09;;;;;;;;;;;4.20;80.00;;;;;;9166679;19;19925;-69
2023/04/02 05:46:20;;;;;;;;;;;4.10;80.00;;;;;;9172192;19;19923;-68
2023/04/02 05:49:28;;;;;;;;;;;4.20;80.00;;;;;;9173038;19;19919;-68
2023/04/02 05:52:35;;;;;;;;;;;4.20;80.00;;;;;;9172385;19;19922;-69
2023/04/02 05:55:45;;;;;;;;;;;4.10;79.80;;;;;;9172134;19;19937;-69
2023/04/02 05:58:53;;;;;;;;;;;4.10;79.80;;;;;;9174788;19;20359;-69
2023/04/02 06:02:18;;;;;;;;;;;4.10;79.80;;;;;;9172272;19;19951;-69
2023/04/02 06:05:24;;;;;;;;;;;4.10;79.90;;;;;;9171915;19;19915;-68
2023/04/02 06:08:34;;;;;;;;;;;4.10;79.80;;;;;;9169805;19;19926;-68
2023/04/02 06:11:41;;;;;;;;;;;4.10;79.80;;;;;;9172068;19;19930;-68
2023/04/02 06:14:50;;;;;;;;;;;4.10;79.80;;;;;;9170988;19;19927;-68
2023/04/02 06:17:59;;;;;;;;;;;4.10;79.80;;;;;;9173014;19;20557;-68
2023/04/02 06:21:06;;;;;;;;;;;4.00;79.80;;;;;;9171087;19;19919;-68
2023/04/02 06:24:12;;;;;;;;;;;4.10;79.90;;;;;;9172206;19;19935;-68
2023/04/02 06:27:21;;;;;;;;;;;4.00;79.80;;;;;;9170759;19;19926;-69
2023/04/02 06:30:29;;;;;;;;;;;4.00;79.80;;;;;;9173450;19;19911;-68
2023/04/02 06:33:36;;;;;;;;;;;4.00;79.70;;;;;;9168495;19;19923;-68
2023/04/02 06:36:40;;;;;;;;;;;4.00;79.80;;;;;;9168183;19;19918;-69
2023/04/02 06:39:48;;;;;;;;;;;4.00;79.80;;;;;;9170943;19;19923;-69
2023/04/02 06:42:58;;;;;;;;;;;4.00;79.80;;;;;;9166198;19;20373;-68
2023/04/02 06:46:18;;;;;;;;;;;4.10;79.90;;;;;;9172375;19;19929;-68
2023/04/02 06:49:37;;;;;;;;;;;4.00;79.90;;;;;;9167711;19;19926;-69
2023/04/02 06:52:47;;;;;;;;;;;4.10;79.80;;;;;;9167453;19;19921;-68
2023/04/02 06:55:52;;;;;;;;;;;4.10;79.80;;;;;;9163924;19;19929;-68
2023/04/02 06:59:03;;;;;;;;;;;4.10;79.80;;;;;;9164804;19;19931;-68
2023/04/02 07:02:18;;;;;;;;;;;4.10;79.80;;;;;;9166650;19;21176;-69
2023/04/02 07:05:25;;;;;;;;;;;4.10;79.80;;;;;;9168167;19;20363;-68
2023/04/02 07:08:30;;;;;;;;;;;4.10;79.90;;;;;;9164217;19;19926;-69
2023/04/02 07:11:36;;;;;;;;;;;4.20;79.90;;;;;;9166744;19;19930;-68
2023/04/02 07:14:41;;;;;;;;;;;4.20;79.90;;;;;;9166600;19;19934;-69
2023/04/02 07:17:50;;;;;;;;;;;4.30;79.90;;;;;;9166944;19;19919;-68
2023/04/02 07:20:54;;;;;;;;;;;4.30;79.90;;;;;;9167360;19;19960;-68
2023/04/02 07:24:01;;;;;;;;;;;4.40;79.90;;;;;;9166103;19;19927;-68
2023/04/02 07:27:05;;;;;;;;;;;4.40;79.70;;;;;;9166793;19;19919;-67
2023/04/02 07:30:11;;;;;;;;;;;4.40;79.70;;;;;;9162240;19;20355;-67
2023/04/02 07:33:19;;;;;;;;;;;4.50;79.70;;;;;;9163535;19;19933;-67
2023/04/02 07:36:25;;;;;;;;;;;4.50;79.70;;;;;;9161195;19;19926;-67
2023/04/02 07:39:29;;;;;;;;;;;4.50;79.60;;;;;;9158506;19;19934;-67
2023/04/02 07:42:35;;;;;;;;;;;4.50;79.60;;;;;;9171735;19;20257;-67
2023/04/02 07:45:39;;;;;;;;;;;4.60;79.60;;;;;;9173068;19;20440;-67
2023/04/02 07:48:47;;;;;;;;;;;4.60;79.50;;;;;;9177247;19;19930;-67
2023/04/02 07:51:52;;;;;;;;;;;4.60;79.50;;;;;;9167726;19;19918;-67
2023/04/02 07:54:58;;;;;;;;;;;4.60;79.50;;;;;;9167421;19;19922;-67
2023/04/02 07:58:03;;;;;;;;;;;4.60;79.50;;;;;;9170507;19;19923;-67
2023/04/02 08:01:15;;;;;;;;;;;4.60;79.40;;;;;;9169939;19;19930;-67
2023/04/02 08:04:22;;;;;;;;;;;4.60;79.40;;;;;;9167952;19;19925;-67
2023/04/02 08:07:29;;;;;;;;;;;4.60;79.40;;;;;;9167803;19;19922;-67
2023/04/02 08:10:32;;;;;;;;;;;4.60;79.40;;;;;;9173714;19;19922;-67
2023/04/02 08:13:38;;;;;;;;;;;4.60;79.40;;;;;;9172863;19;19926;-68
2023/04/02 08:16:46;;;;;;;;;;;4.60;79.30;;;;;;9170187;19;19939;-67
2023/04/02 08:19:54;;;;;;;;;;;4.60;79.30;;;;;;9176677;19;19918;-67
2023/04/02 08:22:59;;;;;;;;;;;4.60;79.30;;;;;;9175739;19;19926;-67
2023/04/02 08:26:06;;;;;;;;;;;4.60;79.40;;;;;;9174681;19;19930;-67
2023/04/02 08:29:10;;;;;;;;;;;4.70;79.60;;;;;;9176764;19;20329;-67
2023/04/02 08:32:18;;;;;;;;;;;4.80;79.70;;;;;;9177168;19;19926;-67
2023/04/02 08:35:25;;;;;;;;;;;4.90;79.80;;;;;;9175926;19;19942;-67
2023/04/02 08:38:31;;;;;;;;;;;5.10;79.90;;;;;;9177087;19;20644;-67
2023/04/02 08:41:37;;;;;;;;;;;5.30;79.80;;;;;;9174714;19;20272;-67
2023/04/02 08:44:46;;;;;;;;;;;5.40;79.70;;;;;;9172116;19;19922;-67
2023/04/02 08:47:52;;;;;;;;;;;5.50;79.60;;;;;;9177112;19;19930;-68
2023/04/02 08:51:00;;;;;;;;;;;5.60;79.40;;;;;;9181497;19;19911;-68
2023/04/02 08:54:07;;;;;;;;;;;5.70;79.40;;;;;;9180706;19;20349;-68
2023/04/02 08:57:19;;;;;;;;;;;5.80;79.40;;;;;;9180807;19;19919;-68
2023/04/02 09:00:27;;;;;;;;;;;5.80;79.20;;;;;;9183616;19;20310;-68
2023/04/02 09:03:36;;;;;;;;;;;5.90;79.30;;;;;;9181191;19;19926;-68
2023/04/02 09:06:42;;;;;;;;;;;6.00;79.30;;;;;;9180780;19;19915;-68
2023/04/02 09:09:51;;;;;;;;;;;6.20;79.40;;;;;;9180255;19;20341;-67
2023/04/02 09:12:57;;;;;;;;;;;6.30;79.50;;;;;;9182691;19;19915;-68
2023/04/02 09:16:06;;;;;;;;;;;6.40;79.50;;;;;;9180866;19;19923;-68
2023/04/02 09:19:18;;;;;;;;;;;6.60;79.50;;;;;;9182334;19;19918;-68
2023/04/02 09:22:27;;;;;;;;;;;6.80;79.50;;;;;;9177740;19;19915;-68
2023/04/02 09:25:32;;;;;;;;;;;7.00;79.40;;;;;;9182147;19;19929;-68
2023/04/02 09:28:38;;;;;;;;;;;7.10;79.10;;;;;;9182193;19;19922;-68
2023/04/02 09:31:44;;;;;;;;;;;7.20;78.90;;;;;;9182745;19;19970;-68
2023/04/02 09:34:50;;;;;;;;;;;7.20;78.80;;;;;;9181685;19;19915;-67
2023/04/02 09:38:09;;;;;;;;;;;7.30;78.70;;;;;;9179792;19;19925;-67
2023/04/02 09:41:21;;;;;;;;;;;7.30;78.70;;;;;;9181151;19;20349;-67
2023/04/02 09:44:26;;;;;;;;;;;7.30;78.60;;;;;;9176302;19;19907;-67
2023/04/02 09:47:32;;;;;;;;;;;7.20;78.50;;;;;;9181802;19;20248;-67
2023/04/02 09:50:37;;;;;;;;;;;7.20;78.60;;;;;;9181173;19;20267;-67
2023/04/02 09:53:44;;;;;;;;;;;7.30;78.60;;;;;;9179683;19;20288;-67
2023/04/02 09:57:03;;;;;;;;;;;7.30;78.70;;;;;;9177669;19;19929;-67
2023/04/02 10:00:17;;;;;;;;;;;7.30;78.70;;;;;;9180767;19;19930;-67
2023/04/02 10:03:35;;;;;;;;;;;7.40;78.80;;;;;;9180830;19;20333;-67
2023/04/02 10:06:52;;;;;;;;;;;7.50;78.80;;;;;;9180602;19;19923;-67
2023/04/02 10:09:58;;;;;;;;;;;7.60;78.80;;;;;;9177405;19;19937;-67
2023/04/02 10:13:07;;;;;;;;;;;7.70;78.90;;;;;;9180492;19;19923;-66
2023/04/02 10:16:14;;;;;;;;;;;7.90;78.80;;;;;;9179254;19;20265;-66
2023/04/02 10:19:26;;;;;;;;;;;8.00;78.80;;;;;;9174596;19;20309;-66
2023/04/02 10:22:30;;;;;;;;;;;8.20;78.80;;;;;;9180588;19;20368;-66
2023/04/02 10:25:41;;;;;;;;;;;8.30;78.70;;;;;;9179933;19;19921;-66
2023/04/02 10:28:51;;;;;;;;;;;8.50;78.70;;;;;;9179046;19;19927;-66
2023/04/02 10:32:05;;;;;;;;;;;8.60;78.60;;;;;;9178949;19;19918;-66
2023/04/02 10:35:12;;;;;;;;;;;8.80;78.60;;;;;;9179599;19;19921;-66
2023/04/02 10:38:33;;;;;;;;;;;8.90;78.50;;;;;;9180188;19;19918;-67
2023/04/02 10:41:40;;;;;;;;;;;9.10;78.50;;;;;;9178429;19;19919;-68
2023/04/02 10:44:51;;;;;;;;;;;9.20;78.40;;;;;;9175004;19;19926;-68
2023/04/02 10:48:01;;;;;;;;;;;9.40;78.30;;;;;;9180003;19;19986;-69
2023/04/02 10:51:09;;;;;;;;;;;9.50;78.20;;;;;;9179112;19;19921;-68
2023/04/02 10:54:26;;;;;;;;;;;9.60;78.00;;;;;;9179594;19;19911;-69
2023/04/02 10:57:35;;;;;;;;;;;9.60;77.90;;;;;;9175946;19;19915;-68
2023/04/02 11:00:42;;;;;;;;;;;9.70;78.00;;;;;;9179726;19;20298;-69
2023/04/02 11:03:52;;;;;;;;;;;9.70;77.90;;;;;;9179275;19;19935;-69
2023/04/02 11:06:58;;;;;;;;;;;9.80;77.90;;;;;;9179722;19;20325;-70
2023/04/02 11:10:20;;;;;;;;;;;9.90;78.60;;;;;;9175212;19;19919;-69
2023/04/02 11:13:27;;;;;;;;;;;10.00;78.00;;;;;;9177312;19;19919;-70
2023/04/02 11:16:34;;;;;;;;;;;10.20;78.00;;;;;;9176226;19;19937;-69
2023/04/02 11:19:45;;;;;;;;;;;10.30;78.00;;;;;;9178708;19;19911;-71
2023/04/02 11:23:05;;;;;;;;;;;10.50;78.00;;;;;;9177760;19;19927;-70
2023/04/02 11:26:24;;;;;;;;;;;10.70;77.90;;;;;;9165902;19;19927;-70
2023/04/02 11:29:30;;;;;;;;;;;10.80;77.70;;;;;;9164749;19;19923;-70
2023/04/02 11:32:35;;;;;;;;;;;10.90;77.60;;;;;;9164109;19;20343;-70
2023/04/02 11:35:44;;;;;;;;;;;10.90;77.40;;;;;;9170458;19;19926;-69
2023/04/02 11:38:51;;;;;;;;;;;11.00;77.40;;;;;;9170078;19;19915;-70
2023/04/02 11:42:02;;;;;;;;;;;11.00;77.40;;;;;;9167669;19;19919;-69
2023/04/02 11:45:25;;;;;;;;;;;11.10;77.40;;;;;;9169502;19;20307;-70
2023/04/02 11:48:32;;;;;;;;;;;11.20;77.90;;;;;;9174924;19;19921;-69
2023/04/02 11:51:52;;;;;;;;;;;11.30;77.20;;;;;;9176471;19;19956;-70
2023/04/02 11:55:26;;;;;;;;;;;11.30;77.20;;;;;;9178297;19;19921;-69
2023/04/02 11:58:36;;;;;;;;;;;11.30;77.20;;;;;;9180468;19;19922;-69
2023/04/02 12:01:59;;;;;;;;;;;11.30;77.20;;;;;;9180018;19;19918;-70
2023/04/02 12:05:09;;;;;;;;;;;11.40;77.20;;;;;;9181084;19;20564;-71
2023/04/02 12:08:24;;;;;;;;;;;11.50;77.10;;;;;;9183939;19;19915;-69
2023/04/02 12:11:32;;;;;;;;;;;11.60;77.00;;;;;;9181888;19;19956;-70
2023/04/02 12:14:44;;;;;;;;;;;11.60;77.00;;;;;;9184282;19;19959;-69
2023/04/02 12:17:48;;;;;;;;;;;11.70;77.00;;;;;;9182679;19;19948;-69
2023/04/02 12:20:55;;;;;;;;;;;11.70;76.80;;;;;;9184891;19;19922;-70
2023/04/02 12:24:02;;;;;;;;;;;11.70;76.80;;;;;;9184460;19;19925;-70
2023/04/02 12:27:14;;;;;;;;;;;11.80;76.80;;;;;;9184208;19;20256;-70
2023/04/02 12:30:20;;;;;;;;;;;11.90;76.80;;;;;;9184142;19;20340;-70
2023/04/02 12:33:29;;;;;;;;;;;11.90;76.70;;;;;;9183781;19;19918;-70
2023/04/02 12:36:33;;;;;;;;;;;12.00;76.70;;;;;;9182960;19;19923;-70
2023/04/02 12:39:41;;;;;;;;;;;12.00;76.60;;;;;;9182658;19;19999;-70
2023/04/02 12:42:45;;;;;;;;;;;12.00;76.50;;;;;;9180145;19;20252;-70
2023/04/02 12:45:52;;;;;;;;;;;12.00;76.40;;;;;;9183607;19;19929;-70
2023/04/02 12:48:59;;;;;;;;;;;12.10;76.30;;;;;;9183841;19;20323;-69
2023/04/02 12:52:07;;;;;;;;;;;12.00;76.20;;;;;;9181463;19;19919;-70
2023/04/02 12:55:20;;;;;;;;;;;12.00;76.20;;;;;;9181786;19;20025;-70
2023/04/02 12:58:27;;;;;;;;;;;12.00;76.20;;;;;;9180873;19;19930;-70
2023/04/02 13:01:32;;;;;;;;;;;12.00;76.20;;;;;;9182215;19;19959;-70
2023/04/02 13:04:47;;;;;;;;;;;12.00;76.20;;;;;;9182890;19;19987;-70
2023/04/02 13:07:51;;;;;;;;;;;11.90;76.10;;;;;;9180397;19;19915;-70
2023/04/02 13:11:00;;;;;;;;;;;11.90;76.10;;;;;;9182367;19;19926;-70
2023/04/02 13:14:05;;;;;;;;;;;11.80;76.00;;;;;;9183186;19;19948;-70
2023/04/02 13:17:26;;;;;;;;;;;11.80;75.90;;;;;;9181048;19;19911;-70
2023/04/02 13:20:31;;;;;;;;;;;11.80;75.90;;;;;;9181892;19;20368;-70
2023/04/02 13:23:38;;;;;;;;;;;11.70;76.50;;;;;;9182724;19;19919;-70
2023/04/02 13:26:43;;;;;;;;;;;11.70;75.90;;;;;;9182700;19;19929;-71
2023/04/02 13:29:50;;;;;;;;;;;11.70;75.90;;;;;;9180512;19;19930;-70
2023/04/02 13:32:53;;;;;;;;;;;11.60;75.80;;;;;;9182583;19;19918;-70
2023/04/02 13:36:00;;;;;;;;;;;11.60;75.80;;;;;;9181460;19;20337;-70
2023/04/02 13:39:04;;;;;;;;;;;11.60;75.80;;;;;;9182100;19;19918;-70
2023/04/02 13:42:13;;;;;;;;;;;11.60;75.80;;;;;;9181824;19;19932;-71
2023/04/02 13:45:21;;;;;;;;;;;11.70;75.80;;;;;;9176151;19;19923;-70
2023/04/02 13:48:27;;;;;;;;;;;11.70;75.70;;;;;;9180316;19;19925;-70
2023/04/02 13:51:35;;;;;;;;;;;11.70;75.80;;;;;;9181568;19;19938;-70
2023/04/02 13:54:43;;;;;;;;;;;11.70;75.70;;;;;;9181776;19;19918;-69
2023/04/02 13:57:49;;;;;;;;;;;11.70;75.70;;;;;;9178944;19;19918;-69
2023/04/02 14:00:56;;;;;;;;;;;11.70;75.70;;;;;;9181796;19;19930;-70
2023/04/02 14:04:00;;;;;;;;;;;11.70;75.60;;;;;;9178575;19;19947;-70
2023/04/02 14:07:16;;;;;;;;;;;11.70;75.50;;;;;;9178511;19;19923;-70
2023/04/02 14:10:23;;;;;;;;;;;11.70;75.50;;;;;;9181380;19;20713;-69
2023/04/02 14:13:41;;;;;;;;;;;11.70;75.40;;;;;;9181049;19;19919;-70
2023/04/02 14:16:51;;;;;;;;;;;11.70;75.40;;;;;;9179596;19;19942;-70
2023/04/02 14:20:08;;;;;;;;;;;11.80;75.40;;;;;;9179272;19;19923;-71
2023/04/02 14:23:26;;;;;;;;;;;11.80;75.40;;;;;;9179382;19;19994;-70
2023/04/02 14:26:38;;;;;;;;;;;11.80;75.30;;;;;;9168878;19;20462;-70
2023/04/02 14:29:49;;;;;;;;;;;11.80;75.20;;;;;;9172398;19;19919;-70
2023/04/02 14:33:00;;;;;;;;;;;11.80;75.20;;;;;;9170802;19;19914;-70
2023/04/02 14:36:08;;;;;;;;;;;11.70;75.20;;;;;;9172259;19;19933;-70
2023/04/02 14:39:18;;;;;;;;;;;11.80;75.20;;;;;;9170048;19;19926;-70
2023/04/02 14:42:23;;;;;;;;;;;11.80;75.20;;;;;;9170280;19;19927;-69
2023/04/02 14:45:38;;;;;;;;;;;11.80;75.10;;;;;;9168161;19;19934;-70
2023/04/02 14:48:44;;;;;;;;;;;11.80;75.00;;;;;;9171300;19;19923;-70
2023/04/02 14:51:52;;;;;;;;;;;11.70;74.90;;;;;;9171279;19;20246;-70
2023/04/02 14:55:02;;;;;;;;;;;11.70;74.90;;;;;;9172685;19;20280;-70
2023/04/02 14:58:14;;;;;;;;;;;11.70;74.90;;;;;;9168679;19;19918;-71
2023/04/02 15:01:23;;;;;;;;;;;11.70;74.90;;;;;;9170450;19;20335;-71
2023/04/02 15:04:32;;;;;;;;;;;11.70;74.90;;;;;;9171446;19;19919;-70
2023/04/02 15:07:39;;;;;;;;;;;11.70;74.90;;;;;;9171999;19;19926;-70
2023/04/02 15:10:49;;;;;;;;;;;11.70;74.90;;;;;;9171573;19;19922;-70
2023/04/02 15:13:58;;;;;;;;;;;11.70;74.80;;;;;;9177566;19;19927;-70
2023/04/02 15:17:07;;;;;;;;;;;11.70;74.80;;;;;;9164414;19;19915;-70
2023/04/02 15:20:14;;;;;;;;;;;11.70;74.80;;;;;;9175822;19;19982;-71
2023/04/02 15:23:31;;;;;;;;;;;11.70;74.80;;;;;;9179312;19;19935;-70
2023/04/02 15:26:39;;;;;;;;;;;11.60;74.70;;;;;;9176715;19;19955;-71
2023/04/02 15:29:48;;;;;;;;;;;11.60;74.60;;;;;;9177798;19;19926;-71
2023/04/02 15:32:55;;;;;;;;;;;11.60;74.60;;;;;;9178579;19;20284;-70
2023/04/02 15:36:13;;;;;;;;;;;11.60;74.60;;;;;;9178506;19;20647;-71
2023/04/02 15:39:30;;;;;;;;;;;11.60;74.60;;;;;;9178065;19;20014;-71
2023/04/02 15:42:39;;;;;;;;;;;11.60;74.50;;;;;;9177415;19;19923;-71
2023/04/02 15:45:49;;;;;;;;;;;11.60;74.50;;;;;;9177915;19;19948;-70
2023/04/02 15:49:05;;;;;;;;;;;11.60;74.50;;;;;;9177144;19;19925;-70
2023/04/02 15:52:11;;;;;;;;;;;11.60;74.40;;;;;;9176528;19;20352;-71
2023/04/02 15:55:23;;;;;;;;;;;11.50;74.30;;;;;;9176558;19;19930;-70
2023/04/02 15:58:34;;;;;;;;;;;11.50;74.40;;;;;;9174955;19;19933;-70
2023/04/02 16:01:42;;;;;;;;;;;11.50;74.40;;;;;;9175636;19;19939;-70
2023/04/02 16:04:52;;;;;;;;;;;11.50;74.30;;;;;;9178878;19;19926;-70
2023/04/02 16:08:22;;;;;;;;;;;11.50;74.30;;;;;;9180956;19;19929;-70
2023/04/02 16:11:27;;;;;;;;;;;11.50;74.30;;;;;;9181860;19;19982;-71
2023/04/02 16:14:45;;;;;;;;;;;11.40;74.20;;;;;;9183162;19;19915;-70
2023/04/02 16:17:52;;;;;;;;;;;11.40;74.20;;;;;;9181889;19;19922;-70
2023/04/02 16:21:01;;;;;;;;;;;11.40;74.10;;;;;;9183143;19;19919;-70
2023/04/02 16:24:10;;;;;;;;;;;11.40;74.10;;;;;;9181791;19;20349;-70
2023/04/02 16:27:21;;;;;;;;;;;11.40;74.10;;;;;;9178788;19;19919;-70
2023/04/02 16:30:35;;;;;;;;;;;11.40;74.10;;;;;;9178350;19;19922;-70
2023/04/02 16:33:46;;;;;;;;;;;11.30;74.00;;;;;;9178420;19;19922;-71
2023/04/02 16:36:55;;;;;;;;;;;11.30;74.00;;;;;;9177877;19;19926;-70
2023/04/02 16:40:05;;;;;;;;;;;11.30;74.00;;;;;;9181993;19;19919;-70
2023/04/02 16:43:16;;;;;;;;;;;11.30;74.00;;;;;;9178393;19;19922;-70
2023/04/02 16:46:24;;;;;;;;;;;11.30;74.00;;;;;;9183678;19;19923;-71
2023/04/02 16:49:45;;;;;;;;;;;11.20;74.00;;;;;;9184003;19;19930;-70
2023/04/02 16:52:57;;;;;;;;;;;11.20;73.90;;;;;;9180535;19;19926;-70
2023/04/02 16:56:17;;;;;;;;;;;11.20;73.90;;;;;;9183591;19;19974;-70
2023/04/02 16:59:31;;;;;;;;;;;11.10;73.90;;;;;;9183063;19;19918;-70
2023/04/02 17:02:43;;;;;;;;;;;11.10;73.80;;;;;;9183085;19;19911;-70
2023/04/02 17:05:56;;;;;;;;;;;11.10;73.90;;;;;;9182724;19;19922;-70
2023/04/02 17:09:07;;;;;;;;;;;11.00;73.80;;;;;;9180723;19;19943;-70
2023/04/02 17:12:16;;;;;;;;;;;11.00;73.70;;;;;;9183014;19;19915;-70
2023/04/02 17:15:21;;;;;;;;;;;11.00;74.40;;;;;;9182102;19;19922;-70
2023/04/02 17:18:34;;;;;;;;;;;11.00;73.80;;;;;;9180091;19;19918;-70
2023/04/02 17:21:38;;;;;;;;;;;10.90;73.80;;;;;;9179609;19;19938;-69
2023/04/02 17:24:50;;;;;;;;;;;10.90;73.70;;;;;;9173649;19;20260;-69
2023/04/02 17:27:55;;;;;;;;;;;10.80;73.60;;;;;;9175488;19;19919;-69
2023/04/02 17:31:01;;;;;;;;;;;10.80;73.70;;;;;;9176366;19;19921;-69
2023/04/02 17:34:11;;;;;;;;;;;10.70;73.60;;;;;;9178745;19;20244;-69
2023/04/02 17:37:22;;;;;;;;;;;10.70;73.60;;;;;;9176386;19;19919;-69
2023/04/02 17:40:31;;;;;;;;;;;10.70;73.60;;;;;;9179581;19;19922;-69
2023/04/02 17:44:00;;;;;;;;;;;10.60;73.60;;;;;;9170716;19;20337;-69
2023/04/02 17:47:07;;;;;;;;;;;10.60;73.60;;;;;;9169370;19;19938;-69
2023/04/02 17:50:29;;;;;;;;;;;10.60;73.60;;;;;;9178450;19;20134;-69
2023/04/02 17:53:39;;;;;;;;;;;10.50;73.60;;;;;;9181037;19;19919;-69
2023/04/02 17:56:58;;;;;;;;;;;10.50;73.50;;;;;;9180595;19;19926;-69
2023/04/02 18:00:09;;;;;;;;;;;10.40;73.50;;;;;;9181363;19;19930;-69
2023/04/02 18:03:32;;;;;;;;;;;10.40;73.50;;;;;;9179903;19;20329;-69
2023/04/02 18:06:40;;;;;;;;;;;10.30;73.50;;;;;;9181548;19;19919;-69
2023/04/02 18:09:47;;;;;;;;;;;10.30;73.40;;;;;;9177712;19;19937;-69
2023/04/02 18:12:58;;;;;;;;;;;10.30;73.40;;;;;;9180150;19;19921;-69
2023/04/02 18:16:12;;;;;;;;;;;10.30;73.40;;;;;;9181079;19;19915;-69
2023/04/02 18:19:17;;;;;;;;;;;10.20;73.40;;;;;;9177542;19;19926;-69
2023/04/02 18:22:28;;;;;;;;;;;10.20;73.30;;;;;;9180175;19;19922;-69
2023/04/02 18:25:36;;;;;;;;;;;10.10;73.30;;;;;;9180760;19;19919;-69
2023/04/02 18:28:49;;;;;;;;;;;10.10;73.30;;;;;;9179674;19;20261;-69
2023/04/02 18:31:56;;;;;;;;;;;10.00;73.20;;;;;;9180126;19;19947;-69